Time;durP1;ratioP1;P1;durP2;ratioP2;P2;SDS_P1;SDS_P2;PMS_P1;PMS_P2;Temp;Humidity;BMP_temperature;BMP_pressure;BME280_temperature;BME280_humidity;BME280_pressure;Samples;Min_cycle;Max_cycle;Signal;HPM_P1;HPM_P2
2022/05/04 00:00:19;;;;;;;14.53;9.77;;;;;;;;;;4959618;28;20318;-50
2022/05/04 00:02:45;;;;;;;12.67;9.37;;;;;;;;;;4967075;28;20193;-50
2022/05/04 00:05:11;;;;;;;14.53;9.70;;;;;;;;;;4966775;28;20191;-50
2022/05/04 00:07:37;;;;;;;10.97;8.27;;;;;;;;;;4967722;28;20243;-50
2022/05/04 00:10:04;;;;;;;12.03;8.80;;;;;;;;;;4967941;28;20585;-50
2022/05/04 00:12:30;;;;;;;14.20;9.43;;;;;;;;;;4963996;28;20189;-50
2022/05/04 00:14:56;;;;;;;14.60;9.10;;;;;;;;;;4968484;28;20194;-51
2022/05/04 00:17:22;;;;;;;12.33;8.33;;;;;;;;;;4955599;28;20199;-50
2022/05/04 00:19:48;;;;;;;12.67;8.73;;;;;;;;;;4967719;28;20276;-50
2022/05/04 00:22:18;;;;;;;12.17;8.57;;;;;;;;;;4966751;28;20187;-51
2022/05/04 00:24:44;;;;;;;13.17;8.70;;;;;;;;;;4969387;28;20183;-50
2022/05/04 00:27:10;;;;;;;11.70;7.93;;;;;;;;;;4966644;28;20249;-50
2022/05/04 00:29:36;;;;;;;10.37;8.40;;;;;;;;;;4968093;28;20202;-50
2022/05/04 00:32:02;;;;;;;13.33;8.17;;;;;;;;;;4960348;28;20261;-50
2022/05/04 00:34:28;;;;;;;12.20;8.13;;;;;;;;;;4966794;28;20198;-50
2022/05/04 00:36:54;;;;;;;13.07;8.23;;;;;;;;;;4966617;28;20405;-50
2022/05/04 00:39:20;;;;;;;12.47;8.20;;;;;;;;;;4965023;28;20234;-50
2022/05/04 00:41:46;;;;;;;10.73;7.87;;;;;;;;;;4960303;28;20190;-50
2022/05/04 00:44:12;;;;;;;10.80;7.67;;;;;;;;;;4966102;28;20191;-50
2022/05/04 00:46:38;;;;;;;17.40;7.60;;;;;;;;;;4962824;28;20202;-50
2022/05/04 00:49:04;;;;;;;10.70;8.00;;;;;;;;;;4970227;28;20746;-50
2022/05/04 00:51:30;;;;;;;11.10;8.20;;;;;;;;;;4959841;28;20178;-50
2022/05/04 00:53:56;;;;;;;13.13;8.27;;;;;;;;;;4966773;28;20286;-51
2022/05/04 00:56:22;;;;;;;14.03;8.40;;;;;;;;;;4967074;28;20187;-51
2022/05/04 00:58:57;;;;;;;11.13;7.47;;;;;;;;;;4966664;28;20548;-51
2022/05/04 01:01:29;;;;;;;12.23;7.60;;;;;;;;;;4957632;28;20187;-50
2022/05/04 01:03:55;;;;;;;13.27;7.73;;;;;;;;;;4970214;28;20214;-50
2022/05/04 01:06:21;;;;;;;11.27;7.40;;;;;;;;;;4966757;28;20211;-50
2022/05/04 01:08:48;;;;;;;16.80;8.00;;;;;;;;;;4960972;28;20261;-50
2022/05/04 01:11:14;;;;;;;12.90;8.20;;;;;;;;;;4963948;28;20199;-50
2022/05/04 01:13:40;;;;;;;12.63;7.27;;;;;;;;;;4968548;28;20277;-50
2022/05/04 01:16:06;;;;;;;10.33;7.80;;;;;;;;;;4969442;28;20306;-50
2022/05/04 01:18:32;;;;;;;12.23;7.83;;;;;;;;;;4971685;28;20704;-51
2022/05/04 01:20:58;;;;;;;10.30;7.40;;;;;;;;;;4964466;28;20798;-50
2022/05/04 01:23:24;;;;;;;12.60;8.00;;;;;;;;;;4966667;28;20196;-51
2022/05/04 01:25:53;;;;;;;13.67;8.17;;;;;;;;;;4972366;28;20183;-50
2022/05/04 01:28:19;;;;;;;14.47;8.10;;;;;;;;;;4970013;28;20809;-50
2022/05/04 01:30:45;;;;;;;16.57;8.80;;;;;;;;;;4958773;28;20191;-50
2022/05/04 01:33:11;;;;;;;9.93;7.13;;;;;;;;;;4973097;28;20195;-50
2022/05/04 01:35:37;;;;;;;14.23;7.77;;;;;;;;;;4968359;28;20186;-50
2022/05/04 01:38:03;;;;;;;10.77;7.63;;;;;;;;;;4959937;28;20318;-51
2022/05/04 01:40:29;;;;;;;12.17;7.63;;;;;;;;;;4961974;28;20218;-50
2022/05/04 01:42:55;;;;;;;11.53;7.20;;;;;;;;;;4967615;28;20771;-50
2022/05/04 01:45:22;;;;;;;11.17;7.33;;;;;;;;;;4963054;28;20264;-50
2022/05/04 01:47:49;;;;;;;10.90;7.00;;;;;;;;;;4966587;28;20591;-50
2022/05/04 01:50:15;;;;;;;11.13;7.20;;;;;;;;;;4967648;28;20612;-50
2022/05/04 01:52:41;;;;;;;15.70;7.63;;;;;;;;;;4968704;28;20273;-50
2022/05/04 01:55:07;;;;;;;10.73;7.60;;;;;;;;;;4968360;28;20193;-51
2022/05/04 01:57:33;;;;;;;10.80;7.17;;;;;;;;;;4963432;28;20223;-50
2022/05/04 01:59:59;;;;;;;13.70;7.20;;;;;;;;;;4957956;28;20353;-50
2022/05/04 02:02:26;;;;;;;9.10;7.07;;;;;;;;;;4956949;28;20186;-51
2022/05/04 02:04:52;;;;;;;9.03;6.73;;;;;;;;;;4964793;28;20183;-51
2022/05/04 02:07:18;;;;;;;10.00;7.00;;;;;;;;;;4958157;28;20237;-50
2022/05/04 02:09:44;;;;;;;9.10;6.93;;;;;;;;;;4947083;28;20253;-50
2022/05/04 02:12:11;;;;;;;9.57;6.63;;;;;;;;;;4973367;28;20644;-50
2022/05/04 02:14:36;;;;;;;10.87;6.97;;;;;;;;;;4970398;28;20242;-50
2022/05/04 02:17:02;;;;;;;8.27;6.40;;;;;;;;;;4960072;28;20519;-51
2022/05/04 02:19:28;;;;;;;11.80;7.20;;;;;;;;;;4964780;28;20301;-50
2022/05/04 02:21:54;;;;;;;9.03;6.40;;;;;;;;;;4969526;28;20197;-50
2022/05/04 02:24:20;;;;;;;9.67;6.27;;;;;;;;;;4965963;28;20202;-50
2022/05/04 02:26:46;;;;;;;11.53;7.13;;;;;;;;;;4965572;28;20245;-50
2022/05/04 02:29:12;;;;;;;12.03;6.53;;;;;;;;;;4966527;28;20700;-50
2022/05/04 02:31:38;;;;;;;9.53;6.20;;;;;;;;;;4964987;28;20190;-50
2022/05/04 02:34:04;;;;;;;11.03;6.23;;;;;;;;;;4966164;28;20205;-50
2022/05/04 02:39:15;;;;;;;12.77;7.07;;;;;;;;;;4968051;28;21957;-50
2022/05/04 02:41:41;;;;;;;11.07;6.73;;;;;;;;;;4966865;28;20178;-49
2022/05/04 02:44:07;;;;;;;10.83;6.10;;;;;;;;;;4959632;28;20191;-50
2022/05/04 02:46:33;;;;;;;11.17;6.90;;;;;;;;;;4965212;28;20257;-50
2022/05/04 02:48:59;;;;;;;10.00;6.57;;;;;;;;;;4970017;28;20198;-50
2022/05/04 02:51:25;;;;;;;13.27;6.63;;;;;;;;;;4967866;28;20195;-50
2022/05/04 02:53:51;;;;;;;17.37;6.93;;;;;;;;;;4968854;28;20198;-50
2022/05/04 02:56:17;;;;;;;12.27;6.83;;;;;;;;;;4972203;28;20186;-50
2022/05/04 02:58:43;;;;;;;13.97;7.03;;;;;;;;;;4964520;28;20260;-50
2022/05/04 03:04:02;;;;;;;8.90;6.33;;;;;;;;;;4963862;28;20194;-51
2022/05/04 03:06:29;;;;;;;12.10;6.80;;;;;;;;;;4966335;28;20217;-50
2022/05/04 03:08:55;;;;;;;11.60;6.90;;;;;;;;;;4960759;28;20249;-51
2022/05/04 03:14:08;;;;;;;13.30;6.93;;;;;;;;;;4968047;28;20198;-50
2022/05/04 03:16:34;;;;;;;9.47;6.93;;;;;;;;;;4970322;28;20218;-50
2022/05/04 03:19:01;;;;;;;11.87;7.30;;;;;;;;;;4960866;28;20206;-50
2022/05/04 03:21:27;;;;;;;13.13;6.60;;;;;;;;;;4969343;28;20209;-51
2022/05/04 03:23:53;;;;;;;14.60;6.50;;;;;;;;;;4969341;28;20667;-50
2022/05/04 03:26:19;;;;;;;13.57;7.03;;;;;;;;;;4971361;28;20314;-50
2022/05/04 03:28:45;;;;;;;10.97;6.43;;;;;;;;;;4967203;28;20233;-50
2022/05/04 03:31:11;;;;;;;9.67;7.20;;;;;;;;;;4960698;28;20194;-50
2022/05/04 03:33:37;;;;;;;10.13;6.80;;;;;;;;;;4965692;28;20631;-50
2022/05/04 03:36:03;;;;;;;11.20;7.27;;;;;;;;;;4969056;28;20198;-50
2022/05/04 03:38:29;;;;;;;11.00;7.20;;;;;;;;;;4963392;28;20634;-50
2022/05/04 03:40:55;;;;;;;10.87;6.90;;;;;;;;;;4966057;28;20230;-51
2022/05/04 03:43:21;;;;;;;10.13;6.77;;;;;;;;;;4967539;28;20195;-50
2022/05/04 03:45:47;;;;;;;9.53;7.00;;;;;;;;;;4968283;28;20183;-50
2022/05/04 03:48:13;;;;;;;11.13;7.23;;;;;;;;;;4963843;28;20261;-50
2022/05/04 03:50:39;;;;;;;9.30;7.20;;;;;;;;;;4963765;28;20660;-50
2022/05/04 03:53:05;;;;;;;15.27;7.97;;;;;;;;;;4963276;28;20691;-50
2022/05/04 03:55:31;;;;;;;10.37;6.70;;;;;;;;;;4969811;28;20648;-49
2022/05/04 03:57:58;;;;;;;10.37;6.73;;;;;;;;;;4970122;28;20657;-50
2022/05/04 04:00:24;;;;;;;11.97;7.10;;;;;;;;;;4967624;28;20206;-50
2022/05/04 04:02:50;;;;;;;10.40;7.17;;;;;;;;;;4962848;28;20199;-49
2022/05/04 04:05:16;;;;;;;12.33;7.40;;;;;;;;;;4972858;28;20830;-51
2022/05/04 04:07:42;;;;;;;12.33;7.33;;;;;;;;;;4965171;28;20230;-50
2022/05/04 04:10:08;;;;;;;10.07;6.47;;;;;;;;;;4973659;28;20214;-50
2022/05/04 04:12:34;;;;;;;9.83;6.80;;;;;;;;;;4967383;28;20256;-49
2022/05/04 04:15:00;;;;;;;11.87;7.17;;;;;;;;;;4967083;28;20199;-49
2022/05/04 04:17:26;;;;;;;10.80;6.73;;;;;;;;;;4963206;28;20194;-49
2022/05/04 04:21:50;;;;;;;9.07;7.03;;;;;;;;;;4966446;28;20671;-52
2022/05/04 04:22:38;;;;;;;12.30;6.87;;;;;;;;;;4967467;28;20337;-49
2022/05/04 04:25:04;;;;;;;12.33;7.37;;;;;;;;;;4960369;28;20198;-49
2022/05/04 04:27:32;;;;;;;7.97;6.47;;;;;;;;;;4965349;28;20263;-49
2022/05/04 04:29:58;;;;;;;11.00;7.17;;;;;;;;;;4960022;28;20787;-51
2022/05/04 04:32:24;;;;;;;9.47;6.20;;;;;;;;;;4966140;28;20226;-50
2022/05/04 04:34:50;;;;;;;12.43;7.10;;;;;;;;;;4969158;28;20665;-51
2022/05/04 04:37:16;;;;;;;9.67;6.17;;;;;;;;;;4957840;28;20265;-50
2022/05/04 04:39:42;;;;;;;9.80;6.67;;;;;;;;;;4961193;28;20567;-51
2022/05/04 04:42:08;;;;;;;12.83;6.90;;;;;;;;;;4957524;28;20724;-51
2022/05/04 04:44:34;;;;;;;12.30;6.80;;;;;;;;;;4965588;28;20190;-51
2022/05/04 04:47:00;;;;;;;9.30;6.70;;;;;;;;;;4966736;28;20534;-50
2022/05/04 04:49:26;;;;;;;9.93;6.90;;;;;;;;;;4966205;28;20666;-51
2022/05/04 04:51:52;;;;;;;12.70;7.00;;;;;;;;;;4957885;28;21391;-51
2022/05/04 04:54:18;;;;;;;11.63;6.67;;;;;;;;;;4962282;28;20241;-51
2022/05/04 04:56:44;;;;;;;13.83;6.97;;;;;;;;;;4968484;28;20197;-51
2022/05/04 04:59:10;;;;;;;9.13;6.27;;;;;;;;;;4972812;28;20198;-51
2022/05/04 05:01:36;;;;;;;11.67;7.67;;;;;;;;;;4969403;28;20555;-50
2022/05/04 05:04:02;;;;;;;15.87;7.97;;;;;;;;;;4971983;28;20708;-50
2022/05/04 05:06:29;;;;;;;9.93;6.87;;;;;;;;;;4963239;28;21388;-50
2022/05/04 05:08:55;;;;;;;12.37;7.07;;;;;;;;;;4963730;28;20707;-51
2022/05/04 05:11:21;;;;;;;11.27;5.97;;;;;;;;;;4965619;28;20191;-50
2022/05/04 05:16:32;;;;;;;12.67;7.23;;;;;;;;;;4968165;28;20264;-51
2022/05/04 05:18:58;;;;;;;11.03;6.97;;;;;;;;;;4962132;28;21243;-51
2022/05/04 05:21:24;;;;;;;13.90;6.73;;;;;;;;;;4958374;28;20627;-51
2022/05/04 05:23:50;;;;;;;13.47;6.97;;;;;;;;;;4960046;28;20629;-49
2022/05/04 05:26:16;;;;;;;11.73;6.33;;;;;;;;;;4956849;28;20686;-50
2022/05/04 05:28:42;;;;;;;11.10;6.90;;;;;;;;;;4966965;28;20190;-49
2022/05/04 05:31:08;;;;;;;10.73;6.73;;;;;;;;;;4964158;28;20195;-50
2022/05/04 05:33:34;;;;;;;15.53;7.07;;;;;;;;;;4973937;28;20191;-50
2022/05/04 05:36:00;;;;;;;13.13;7.33;;;;;;;;;;4973116;28;20202;-50
2022/05/04 05:38:27;;;;;;;11.00;7.10;;;;;;;;;;4970501;28;20216;-50
2022/05/04 05:40:53;;;;;;;12.30;7.27;;;;;;;;;;4973630;28;20652;-50
2022/05/04 05:43:19;;;;;;;10.97;6.57;;;;;;;;;;4973450;28;20190;-50
2022/05/04 05:45:45;;;;;;;8.87;6.33;;;;;;;;;;4964126;28;20201;-50
2022/05/04 05:48:11;;;;;;;10.10;6.47;;;;;;;;;;4970342;28;20199;-50
2022/05/04 05:50:37;;;;;;;13.93;7.30;;;;;;;;;;4974035;28;20265;-50
2022/05/04 05:53:03;;;;;;;11.33;7.10;;;;;;;;;;4973329;28;20190;-50
2022/05/04 05:55:30;;;;;;;15.00;6.80;;;;;;;;;;4971768;28;20199;-50
2022/05/04 05:57:56;;;;;;;12.07;7.40;;;;;;;;;;4988620;28;20278;-50
2022/05/04 06:00:22;;;;;;;12.83;7.37;;;;;;;;;;4969965;28;20257;-50
2022/05/04 06:02:48;;;;;;;12.80;7.00;;;;;;;;;;4973946;28;20592;-51
2022/05/04 06:05:14;;;;;;;9.80;6.30;;;;;;;;;;4958651;28;20857;-50
2022/05/04 06:07:40;;;;;;;12.50;6.77;;;;;;;;;;4960341;28;20261;-50
2022/05/04 06:10:06;;;;;;;11.40;6.87;;;;;;;;;;4964146;28;20254;-50
2022/05/04 06:12:32;;;;;;;10.67;6.37;;;;;;;;;;4971084;28;20186;-50
2022/05/04 06:14:58;;;;;;;13.50;6.60;;;;;;;;;;4954225;28;20195;-51
2022/05/04 06:17:24;;;;;;;8.67;6.70;;;;;;;;;;4967148;28;20190;-51
2022/05/04 06:19:50;;;;;;;13.33;7.00;;;;;;;;;;4964516;28;20222;-50
2022/05/04 06:22:16;;;;;;;11.73;7.43;;;;;;;;;;4965508;28;20198;-50
2022/05/04 06:24:42;;;;;;;11.10;7.33;;;;;;;;;;4963942;28;21356;-51
2022/05/04 06:27:08;;;;;;;10.57;7.50;;;;;;;;;;4971745;28;20640;-50
2022/05/04 06:35:06;;;;;;;10.20;6.57;;;;;;;;;;4975059;28;20273;-50
2022/05/04 06:37:32;;;;;;;14.73;7.67;;;;;;;;;;4967136;28;20920;-51
2022/05/04 06:39:58;;;;;;;12.83;7.17;;;;;;;;;;4963468;28;20214;-50
2022/05/04 06:42:24;;;;;;;10.93;7.00;;;;;;;;;;4965294;28;20182;-50
2022/05/04 06:44:50;;;;;;;11.80;7.07;;;;;;;;;;4970951;28;20210;-51
2022/05/04 06:47:16;;;;;;;14.57;6.90;;;;;;;;;;4970535;28;20187;-50
2022/05/04 06:49:43;;;;;;;13.50;7.87;;;;;;;;;;4970394;28;20182;-51
2022/05/04 06:52:09;;;;;;;12.83;7.37;;;;;;;;;;4965315;28;20186;-50
2022/05/04 06:54:35;;;;;;;11.47;6.87;;;;;;;;;;4973613;28;20187;-50
2022/05/04 06:57:01;;;;;;;11.70;6.90;;;;;;;;;;4969764;28;20186;-50
2022/05/04 06:59:27;;;;;;;11.53;6.93;;;;;;;;;;4973626;28;20196;-50
2022/05/04 07:01:53;;;;;;;10.70;6.57;;;;;;;;;;4968536;28;20545;-50
2022/05/04 07:04:20;;;;;;;15.47;7.33;;;;;;;;;;4969635;28;20262;-50
2022/05/04 07:06:46;;;;;;;12.23;7.13;;;;;;;;;;4971809;28;20229;-50
2022/05/04 07:09:12;;;;;;;11.57;6.93;;;;;;;;;;4969618;28;20187;-50
2022/05/04 07:11:38;;;;;;;8.20;6.27;;;;;;;;;;4969544;28;20803;-51
2022/05/04 07:14:04;;;;;;;11.07;6.63;;;;;;;;;;4973263;28;20731;-50
2022/05/04 07:16:30;;;;;;;12.43;6.53;;;;;;;;;;4962598;28;20238;-50
2022/05/04 07:18:56;;;;;;;13.83;6.13;;;;;;;;;;4971565;28;20573;-50
2022/05/04 07:21:22;;;;;;;10.57;6.90;;;;;;;;;;4968414;28;20296;-50
2022/05/04 07:23:48;;;;;;;11.77;6.57;;;;;;;;;;4968133;28;20194;-50
2022/05/04 07:26:14;;;;;;;12.87;6.03;;;;;;;;;;4966116;28;20194;-50
2022/05/04 07:28:40;;;;;;;9.97;5.90;;;;;;;;;;4970353;28;20190;-49
2022/05/04 07:31:06;;;;;;;11.43;6.60;;;;;;;;;;4967546;28;20609;-50
2022/05/04 07:33:32;;;;;;;12.67;6.73;;;;;;;;;;4975902;28;20178;-50
2022/05/04 07:35:58;;;;;;;10.10;6.40;;;;;;;;;;4972890;28;20202;-50
2022/05/04 07:38:24;;;;;;;16.17;7.37;;;;;;;;;;4978042;28;20234;-50
2022/05/04 07:43:34;;;;;;;13.47;6.77;;;;;;;;;;4973100;28;20197;-50
2022/05/04 07:46:00;;;;;;;10.87;6.70;;;;;;;;;;4971031;28;20195;-50
2022/05/04 07:48:26;;;;;;;10.33;5.87;;;;;;;;;;4969375;28;20183;-50
2022/05/04 07:50:52;;;;;;;10.30;5.80;;;;;;;;;;4970761;28;20182;-51
2022/05/04 07:53:18;;;;;;;8.73;6.00;;;;;;;;;;4966742;28;20270;-50
2022/05/04 07:55:44;;;;;;;8.47;6.07;;;;;;;;;;4963509;28;20190;-50
2022/05/04 07:58:10;;;;;;;8.87;6.30;;;;;;;;;;4974938;28;20249;-51
2022/05/04 08:06:05;;;;;;;8.60;5.40;;;;;;;;;;4960274;28;20854;-50
2022/05/04 08:08:31;;;;;;;9.37;6.17;;;;;;;;;;4976282;28;20794;-51
2022/05/04 08:10:57;;;;;;;13.53;6.83;;;;;;;;;;4973916;28;20777;-51
2022/05/04 08:13:23;;;;;;;13.17;6.40;;;;;;;;;;4971145;28;20189;-50
2022/05/04 08:15:49;;;;;;;9.93;5.30;;;;;;;;;;4972858;28;20451;-50
2022/05/04 08:18:16;;;;;;;12.93;6.40;;;;;;;;;;4970918;28;20667;-50
2022/05/04 08:20:42;;;;;;;13.00;7.30;;;;;;;;;;4965981;28;21113;-51
2022/05/04 08:23:09;;;;;;;9.53;6.50;;;;;;;;;;4976627;28;20183;-51
2022/05/04 08:25:35;;;;;;;12.00;6.50;;;;;;;;;;4976014;28;20238;-50
2022/05/04 08:28:01;;;;;;;12.47;7.40;;;;;;;;;;4974201;28;20178;-51
2022/05/04 08:30:28;;;;;;;14.17;6.40;;;;;;;;;;4969919;28;20604;-51
2022/05/04 08:32:54;;;;;;;9.70;5.93;;;;;;;;;;4972945;28;20540;-51
2022/05/04 08:35:20;;;;;;;10.07;7.13;;;;;;;;;;4971150;28;20198;-51
2022/05/04 08:37:46;;;;;;;9.82;6.65;;;;;;;;;;4976199;28;20310;-50
2022/05/04 08:40:12;;;;;;;10.73;6.53;;;;;;;;;;4970359;28;20264;-51
2022/05/04 08:42:39;;;;;;;7.40;6.00;;;;;;;;;;4968671;28;20182;-51
2022/05/04 08:45:06;;;;;;;10.68;7.43;;;;;;;;;;4967784;28;20186;-51
2022/05/04 08:47:32;;;;;;;9.13;6.60;;;;;;;;;;4976133;28;20196;-51
2022/05/04 08:49:58;;;;;;;10.68;6.57;;;;;;;;;;4971133;28;20195;-51
2022/05/04 08:52:24;;;;;;;14.35;8.68;;;;;;;;;;4974062;28;20672;-50
2022/05/04 08:54:50;;;;;;;10.43;6.53;;;;;;;;;;4974495;28;20337;-51
2022/05/04 08:57:16;;;;;;;12.23;7.32;;;;;;;;;;4971215;28;20195;-50
2022/05/04 08:59:43;;;;;;;13.40;7.88;;;;;;;;;;4970964;28;20802;-50
2022/05/04 09:02:10;;;;;;;12.43;8.32;;;;;;;;;;4969908;28;20190;-51
2022/05/04 09:04:36;;;;;;;16.85;10.02;;;;;;;;;;4969669;28;20182;-51
2022/05/04 09:07:01;;;;;;;13.15;9.48;;;;;;;;;;4967780;28;21541;-51
2022/05/04 09:09:28;;;;;;;15.25;8.63;;;;;;;;;;4974642;28;21154;-51
2022/05/04 09:11:54;;;;;;;10.70;8.13;;;;;;;;;;4967393;28;20674;-49
2022/05/04 09:14:25;;;;;;;12.10;8.57;;;;;;;;;;4970471;28;20218;-50
2022/05/04 09:16:54;;;;;;;12.85;8.10;;;;;;;;;;4969442;28;20179;-49
2022/05/04 09:19:21;;;;;;;13.55;7.65;;;;;;;;;;4972180;28;20210;-49
2022/05/04 09:21:47;;;;;;;13.18;7.82;;;;;;;;;;4972292;28;20742;-50
2022/05/04 09:24:16;;;;;;;12.75;7.90;;;;;;;;;;4971394;28;20781;-50
2022/05/04 09:26:43;;;;;;;13.35;7.38;;;;;;;;;;4971287;28;20755;-50
2022/05/04 09:29:11;;;;;;;12.38;6.82;;;;;;;;;;4971703;28;20669;-50
2022/05/04 09:31:38;;;;;;;10.10;5.95;;;;;;;;;;4971542;28;20187;-50
2022/05/04 09:34:07;;;;;;;11.93;6.22;;;;;;;;;;4974917;28;20190;-50
2022/05/04 09:36:33;;;;;;;14.13;6.90;;;;;;;;;;4969849;28;20182;-50
2022/05/04 09:47:18;;;;;;;9.57;6.45;;;;;;;;;;4971450;28;20270;-50
2022/05/04 09:49:46;;;;;;;11.23;6.80;;;;;;;;;;4971501;28;20190;-50
2022/05/04 09:52:14;;;;;;;10.20;6.78;;;;;;;;;;4970792;28;20653;-50
2022/05/04 09:54:40;;;;;;;13.25;5.93;;;;;;;;;;4966227;28;20283;-51
2022/05/04 09:57:06;;;;;;;8.85;6.07;;;;;;;;;;4969274;28;20370;-51
2022/05/04 09:59:32;;;;;;;9.90;6.95;;;;;;;;;;4973274;28;20174;-50
2022/05/04 10:02:03;;;;;;;7.93;5.32;;;;;;;;;;4967260;28;20201;-51
2022/05/04 10:04:31;;;;;;;13.23;7.55;;;;;;;;;;4970989;28;20237;-51
2022/05/04 10:06:57;;;;;;;10.32;7.75;;;;;;;;;;4965593;28;20272;-50
2022/05/04 10:09:23;;;;;;;10.30;6.28;;;;;;;;;;4973967;28;20191;-51
2022/05/04 10:11:58;;;;;;;10.27;5.53;;;;;;;;;;4971552;28;20548;-51
2022/05/04 10:14:25;;;;;;;10.60;7.53;;;;;;;;;;4968223;28;20320;-51
2022/05/04 10:16:53;;;;;;;10.90;6.82;;;;;;;;;;4968689;28;20197;-50
2022/05/04 10:19:21;;;;;;;10.68;7.07;;;;;;;;;;4972579;28;20190;-50
2022/05/04 10:21:49;;;;;;;10.90;7.13;;;;;;;;;;4970730;28;20303;-51
2022/05/04 10:24:15;;;;;;;11.07;7.53;;;;;;;;;;4965263;28;20688;-51
2022/05/04 10:26:41;;;;;;;9.15;5.72;;;;;;;;;;4969016;28;20273;-50
2022/05/04 10:32:07;;;;;;;10.02;6.22;;;;;;;;;;4970644;28;20194;-51
2022/05/04 10:34:34;;;;;;;9.18;6.32;;;;;;;;;;4973658;28;20178;-51
2022/05/04 10:37:00;;;;;;;13.18;6.90;;;;;;;;;;4971045;28;20261;-51
2022/05/04 10:39:26;;;;;;;10.75;7.20;;;;;;;;;;4972793;28;20191;-51
2022/05/04 10:41:52;;;;;;;10.43;6.78;;;;;;;;;;4973732;28;20183;-51
2022/05/04 10:44:18;;;;;;;11.80;7.38;;;;;;;;;;4968244;28;20257;-50
2022/05/04 10:46:47;;;;;;;7.35;6.60;;;;;;;;;;4965345;28;20198;-51
2022/05/04 10:49:17;;;;;;;11.80;5.63;;;;;;;;;;4972237;28;20695;-50
2022/05/04 10:51:44;;;;;;;10.57;5.18;;;;;;;;;;4968776;28;20190;-51
2022/05/04 10:54:13;;;;;;;10.30;6.50;;;;;;;;;;4969704;28;20225;-51
2022/05/04 10:56:46;;;;;;;7.57;5.30;;;;;;;;;;4972206;28;20190;-51
2022/05/04 10:59:13;;;;;;;8.20;6.75;;;;;;;;;;4971705;28;20183;-51
2022/05/04 11:01:39;;;;;;;7.72;5.80;;;;;;;;;;4968831;28;20206;-51
2022/05/04 11:04:05;;;;;;;8.05;5.45;;;;;;;;;;4968036;28;20188;-51
2022/05/04 11:06:32;;;;;;;12.23;5.95;;;;;;;;;;4967186;28;20221;-51
2022/05/04 11:08:59;;;;;;;8.20;5.97;;;;;;;;;;4972040;28;20246;-51
2022/05/04 11:11:26;;;;;;;10.57;6.68;;;;;;;;;;4971481;28;20183;-51
2022/05/04 11:13:52;;;;;;;9.20;5.75;;;;;;;;;;4967505;28;20194;-51
2022/05/04 11:16:19;;;;;;;8.40;6.07;;;;;;;;;;4965524;28;20236;-51
2022/05/04 11:18:45;;;;;;;8.65;6.88;;;;;;;;;;4971274;28;20202;-52
2022/05/04 11:21:14;;;;;;;8.35;6.13;;;;;;;;;;4964350;28;20206;-51
2022/05/04 11:23:40;;;;;;;6.22;5.30;;;;;;;;;;4966805;28;20179;-51
2022/05/04 11:26:06;;;;;;;9.75;5.55;;;;;;;;;;4973313;28;20206;-51
2022/05/04 11:28:32;;;;;;;8.60;5.88;;;;;;;;;;4971441;28;20209;-51
2022/05/04 11:30:58;;;;;;;8.57;6.10;;;;;;;;;;4969508;28;20194;-51
2022/05/04 11:33:24;;;;;;;7.80;5.70;;;;;;;;;;4970874;28;20179;-52
2022/05/04 11:35:54;;;;;;;9.52;6.07;;;;;;;;;;4972564;28;20189;-51
2022/05/04 11:38:20;;;;;;;7.45;5.93;;;;;;;;;;4966865;28;20805;-51
2022/05/04 11:40:47;;;;;;;15.52;10.32;;;;;;;;;;4959936;28;20329;-55
2022/05/04 11:43:22;;;;;;;14.60;10.98;;;;;;;;;;4965849;28;20313;-54
2022/05/04 11:45:49;;;;;;;14.95;11.88;;;;;;;;;;4961850;28;20203;-54
2022/05/04 11:48:16;;;;;;;13.65;11.85;;;;;;;;;;4971003;28;20732;-54
2022/05/04 11:50:43;;;;;;;14.68;10.95;;;;;;;;;;4967971;28;20210;-54
2022/05/04 11:53:09;;;;;;;14.95;10.65;;;;;;;;;;4965191;28;20417;-55
2022/05/04 11:55:35;;;;;;;8.88;5.68;;;;;;;;;;4958989;28;20657;-50
2022/05/04 11:58:02;;;;;;;8.70;5.63;;;;;;;;;;4966138;28;20298;-50
2022/05/04 12:00:28;;;;;;;8.65;5.35;;;;;;;;;;4969301;28;20273;-50
2022/05/04 12:02:55;;;;;;;9.07;4.95;;;;;;;;;;4969575;28;20191;-51
2022/05/04 12:05:21;;;;;;;7.40;4.93;;;;;;;;;;4969515;28;20269;-51
2022/05/04 12:07:47;;;;;;;7.00;4.88;;;;;;;;;;4971327;28;20320;-50
2022/05/04 12:10:13;;;;;;;8.27;4.80;;;;;;;;;;4971214;28;20201;-51
2022/05/04 12:12:39;;;;;;;6.25;4.13;;;;;;;;;;4971447;28;20193;-51
2022/05/04 12:15:06;;;;;;;6.80;4.50;;;;;;;;;;4970604;28;20199;-51
2022/05/04 12:17:35;;;;;;;7.07;4.88;;;;;;;;;;4976110;28;20194;-51
2022/05/04 12:20:01;;;;;;;5.65;4.65;;;;;;;;;;4967217;28;20304;-51
2022/05/04 12:22:27;;;;;;;8.20;5.00;;;;;;;;;;4971391;28;20191;-51
2022/05/04 12:24:54;;;;;;;6.70;4.88;;;;;;;;;;4977850;28;20187;-51
2022/05/04 12:27:20;;;;;;;6.88;5.00;;;;;;;;;;4977336;28;20246;-51
2022/05/04 12:35:15;;;;;;;10.27;5.15;;;;;;;;;;4976444;28;20206;-51
2022/05/04 12:37:41;;;;;;;5.38;4.05;;;;;;;;;;4975148;28;20199;-51
2022/05/04 12:40:08;;;;;;;8.07;4.50;;;;;;;;;;4975295;28;20203;-51
2022/05/04 12:42:33;;;;;;;6.65;4.45;;;;;;;;;;4976244;28;20582;-51
2022/05/04 12:45:01;;;;;;;10.15;4.90;;;;;;;;;;4975055;28;20194;-51
2022/05/04 12:47:27;;;;;;;7.78;4.40;;;;;;;;;;4977516;28;20191;-51
2022/05/04 12:49:54;;;;;;;6.07;4.28;;;;;;;;;;4975177;28;20194;-50
2022/05/04 12:52:20;;;;;;;4.68;3.80;;;;;;;;;;4971791;28;20203;-51
2022/05/04 12:54:46;;;;;;;4.65;3.92;;;;;;;;;;4977048;28;20558;-51
2022/05/04 12:57:12;;;;;;;8.13;3.75;;;;;;;;;;4976685;28;21007;-51
2022/05/04 12:59:38;;;;;;;7.57;3.95;;;;;;;;;;4975063;28;20190;-51
2022/05/04 13:02:04;;;;;;;6.47;4.28;;;;;;;;;;4973988;28;20667;-51
2022/05/04 13:04:30;;;;;;;7.68;3.97;;;;;;;;;;4987912;28;20448;-51
2022/05/04 13:06:56;;;;;;;9.32;5.72;;;;;;;;;;4959967;28;20751;-57
2022/05/04 13:09:22;;;;;;;10.15;5.88;;;;;;;;;;4966872;28;20180;-55
2022/05/04 13:11:49;;;;;;;9.52;5.72;;;;;;;;;;4959160;28;20190;-55
2022/05/04 13:14:15;;;;;;;7.40;5.53;;;;;;;;;;4963569;28;20570;-54
2022/05/04 13:16:41;;;;;;;9.77;6.25;;;;;;;;;;4971144;28;20183;-54
2022/05/04 13:19:07;;;;;;;8.32;6.50;;;;;;;;;;4970807;28;20274;-54
2022/05/04 13:21:33;;;;;;;9.15;5.85;;;;;;;;;;4976195;28;20297;-54
2022/05/04 13:23:59;;;;;;;8.00;5.45;;;;;;;;;;4968544;28;20240;-54
2022/05/04 13:26:25;;;;;;;8.25;5.30;;;;;;;;;;4964872;28;20836;-54
2022/05/04 13:28:53;;;;;;;9.20;5.18;;;;;;;;;;4960290;28;20187;-54
2022/05/04 13:31:19;;;;;;;9.13;6.18;;;;;;;;;;4961292;28;20215;-54
2022/05/04 13:33:47;;;;;;;9.20;6.18;;;;;;;;;;4970722;28;20480;-53
2022/05/04 13:36:13;;;;;;;10.63;6.57;;;;;;;;;;4971932;28;20728;-54
2022/05/04 13:38:39;;;;;;;8.60;5.60;;;;;;;;;;4970017;28;20187;-54
2022/05/04 13:41:05;;;;;;;8.98;6.03;;;;;;;;;;4957166;28;20718;-54
2022/05/04 13:43:31;;;;;;;8.13;5.50;;;;;;;;;;4960929;28;20187;-54
2022/05/04 13:45:57;;;;;;;7.88;5.65;;;;;;;;;;4966688;28;20179;-54
2022/05/04 13:48:23;;;;;;;10.18;5.30;;;;;;;;;;4973365;28;20193;-54
2022/05/04 13:53:33;;;;;;;9.90;5.20;;;;;;;;;;4970500;28;20189;-54
2022/05/04 13:56:00;;;;;;;7.95;5.38;;;;;;;;;;4973369;28;20710;-54
2022/05/04 13:58:26;;;;;;;7.82;5.05;;;;;;;;;;4967805;28;20909;-54
2022/05/04 14:00:53;;;;;;;7.32;4.88;;;;;;;;;;4975272;28;20214;-54
2022/05/04 14:03:19;;;;;;;8.18;5.20;;;;;;;;;;4974183;28;20183;-54
2022/05/04 14:05:45;;;;;;;8.82;5.30;;;;;;;;;;4970988;28;20186;-54
2022/05/04 14:08:11;;;;;;;7.45;4.80;;;;;;;;;;4974778;28;20633;-54
2022/05/04 14:10:43;;;;;;;10.30;4.57;;;;;;;;;;4963213;28;20230;-54
2022/05/04 14:13:09;;;;;;;7.63;5.10;;;;;;;;;;4967676;28;20187;-54
2022/05/04 14:15:35;;;;;;;8.90;5.55;;;;;;;;;;4967488;28;20246;-54
2022/05/04 14:18:03;;;;;;;9.55;4.70;;;;;;;;;;4972224;28;20703;-54
2022/05/04 14:20:29;;;;;;;10.18;4.22;;;;;;;;;;4973447;28;20667;-54
2022/05/04 14:22:55;;;;;;;13.23;5.53;;;;;;;;;;4963456;28;20218;-54
2022/05/04 14:25:21;;;;;;;12.55;5.32;;;;;;;;;;4959577;28;20183;-54
2022/05/04 14:27:47;;;;;;;7.57;4.95;;;;;;;;;;4961681;28;20535;-54
2022/05/04 14:30:13;;;;;;;8.13;4.80;;;;;;;;;;4969362;28;20186;-54
2022/05/04 14:32:39;;;;;;;8.98;4.22;;;;;;;;;;4953782;28;20880;-54
2022/05/04 14:35:05;;;;;;;4.60;3.60;;;;;;;;;;4954841;28;20653;-54
2022/05/04 14:37:31;;;;;;;9.25;4.00;;;;;;;;;;4965573;28;20622;-54
2022/05/04 14:40:00;;;;;;;7.90;4.25;;;;;;;;;;4961744;28;20433;-54
2022/05/04 14:42:26;;;;;;;6.72;4.07;;;;;;;;;;4960734;28;20194;-54
2022/05/04 14:44:52;;;;;;;5.28;3.80;;;;;;;;;;4962305;28;20230;-54
2022/05/04 14:47:18;;;;;;;9.30;3.65;;;;;;;;;;4957448;28;20198;-54
2022/05/04 14:49:45;;;;;;;7.03;3.83;;;;;;;;;;4961729;28;20225;-54
2022/05/04 14:52:12;;;;;;;6.78;3.95;;;;;;;;;;4968819;28;20563;-54
2022/05/04 14:54:38;;;;;;;8.02;4.40;;;;;;;;;;4966070;28;20217;-54
2022/05/04 14:57:04;;;;;;;8.23;4.50;;;;;;;;;;4960092;28;20191;-54
2022/05/04 14:59:30;;;;;;;9.23;4.55;;;;;;;;;;4953777;28;20530;-54
2022/05/04 15:01:57;;;;;;;8.98;5.47;;;;;;;;;;4950385;28;20222;-54
2022/05/04 15:07:07;;;;;;;7.45;4.90;;;;;;;;;;4965294;28;20296;-55
2022/05/04 15:09:33;;;;;;;8.82;5.05;;;;;;;;;;4959620;28;20270;-55
2022/05/04 15:11:59;;;;;;;13.60;4.82;;;;;;;;;;4959970;28;20877;-54
2022/05/04 15:14:25;;;;;;;13.85;5.63;;;;;;;;;;4961497;28;20213;-54